Time;durP1;ratioP1;P1;durP2;ratioP2;P2;SDS_P1;SDS_P2;PMS_P1;PMS_P2;Temp;Humidity;BMP_temperature;BMP_pressure;BME280_temperature;BME280_humidity;BME280_pressure;Samples;Min_cycle;Max_cycle;Signal;HPM_P1;HPM_P2
2022/04/15 00:01:21;;;;;;;5.13;3.20;;;;;;;;;;5035862;28;20894;-75
2022/04/15 00:03:47;;;;;;;3.93;2.83;;;;;;;;;;5035427;28;20419;-76
2022/04/15 00:06:14;;;;;;;4.33;2.83;;;;;;;;;;5035483;28;20433;-76
2022/04/15 00:08:40;;;;;;;4.93;2.90;;;;;;;;;;5034593;28;20552;-74
2022/04/15 00:11:08;;;;;;;5.27;3.20;;;;;;;;;;5035641;28;20434;-75
2022/04/15 00:13:35;;;;;;;9.67;3.40;;;;;;;;;;5035521;28;20399;-77
2022/04/15 00:16:02;;;;;;;6.40;3.00;;;;;;;;;;5035292;28;20470;-77
2022/04/15 00:18:28;;;;;;;3.27;2.60;;;;;;;;;;5035376;28;20537;-75
2022/04/15 00:20:54;;;;;;;5.03;3.10;;;;;;;;;;5035390;28;20430;-77
2022/04/15 00:23:23;;;;;;;3.50;2.70;;;;;;;;;;5035215;28;20399;-76
2022/04/15 00:25:50;;;;;;;4.90;3.37;;;;;;;;;;5035261;28;20920;-77
2022/04/15 00:28:16;;;;;;;4.30;3.50;;;;;;;;;;5035367;28;20391;-76
2022/04/15 00:30:42;;;;;;;6.00;3.27;;;;;;;;;;5035274;28;20460;-76
2022/04/15 00:33:08;;;;;;;4.23;3.00;;;;;;;;;;5035122;28;20407;-76
2022/04/15 00:35:34;;;;;;;3.47;2.80;;;;;;;;;;5035026;28;20614;-75
2022/04/15 00:38:00;;;;;;;3.90;2.77;;;;;;;;;;5035138;28;20432;-75
2022/04/15 00:40:26;;;;;;;5.13;3.10;;;;;;;;;;5035089;28;20405;-74
2022/04/15 00:42:52;;;;;;;4.40;3.17;;;;;;;;;;5034905;28;20468;-76
2022/04/15 00:45:18;;;;;;;6.50;3.30;;;;;;;;;;5034796;28;20418;-69
2022/04/15 00:47:51;;;;;;;6.97;3.40;;;;;;;;;;5034816;28;20766;-74
2022/04/15 00:50:20;;;;;;;3.83;3.00;;;;;;;;;;5034728;28;20418;-75
2022/04/15 00:52:47;;;;;;;6.03;3.10;;;;;;;;;;5034878;28;20457;-75
2022/04/15 00:55:14;;;;;;;9.73;3.33;;;;;;;;;;5034693;28;20584;-75
2022/04/15 00:57:41;;;;;;;4.20;3.00;;;;;;;;;;5034706;28;20410;-75
2022/04/15 01:00:08;;;;;;;4.57;3.10;;;;;;;;;;5034563;28;20413;-69
2022/04/15 01:02:35;;;;;;;5.80;2.70;;;;;;;;;;5034547;28;20447;-77
2022/04/15 01:05:02;;;;;;;3.80;2.77;;;;;;;;;;5034043;28;20466;-76
2022/04/15 01:07:31;;;;;;;4.17;3.23;;;;;;;;;;5034607;28;20913;-76
2022/04/15 01:09:57;;;;;;;3.93;3.20;;;;;;;;;;5034448;28;20519;-76
2022/04/15 01:12:28;;;;;;;8.30;3.30;;;;;;;;;;5034220;28;20921;-75
2022/04/15 01:14:54;;;;;;;4.07;3.10;;;;;;;;;;5034202;28;20468;-73
2022/04/15 01:17:20;;;;;;;4.23;2.73;;;;;;;;;;5034215;28;20813;-76
2022/04/15 01:19:46;;;;;;;3.50;3.20;;;;;;;;;;5034040;28;20402;-75
2022/04/15 01:22:15;;;;;;;5.33;3.27;;;;;;;;;;5034314;28;20434;-74
2022/04/15 01:24:41;;;;;;;4.93;3.33;;;;;;;;;;5034116;28;20394;-75
2022/04/15 01:27:07;;;;;;;4.77;3.20;;;;;;;;;;5032864;28;20426;-74
2022/04/15 01:29:40;;;;;;;5.07;3.77;;;;;;;;;;5034097;28;20413;-66
2022/04/15 01:32:07;;;;;;;3.77;3.03;;;;;;;;;;5034076;28;20407;-74
2022/04/15 01:34:34;;;;;;;3.93;3.13;;;;;;;;;;5033954;28;20417;-76
2022/04/15 01:37:00;;;;;;;3.40;3.10;;;;;;;;;;5033882;28;20539;-71
2022/04/15 01:39:31;;;;;;;4.33;3.43;;;;;;;;;;5033942;28;20414;-76
2022/04/15 01:41:57;;;;;;;4.47;3.40;;;;;;;;;;5032596;28;20844;-77
2022/04/15 01:44:23;;;;;;;6.13;3.70;;;;;;;;;;5033805;28;20405;-76
2022/04/15 01:46:50;;;;;;;5.70;3.47;;;;;;;;;;5033551;28;20406;-72
2022/04/15 01:49:16;;;;;;;3.30;3.00;;;;;;;;;;5033917;28;20399;-74
2022/04/15 01:51:42;;;;;;;3.57;3.10;;;;;;;;;;5033850;28;20497;-75
2022/04/15 01:54:08;;;;;;;6.43;3.63;;;;;;;;;;5033550;28;20905;-76
2022/04/15 01:56:34;;;;;;;7.10;3.70;;;;;;;;;;5033677;28;20469;-76
2022/04/15 01:59:00;;;;;;;5.20;3.80;;;;;;;;;;5033644;28;20406;-75
2022/04/15 02:01:26;;;;;;;3.97;3.50;;;;;;;;;;5033542;28;20494;-76
2022/04/15 02:03:52;;;;;;;3.57;3.17;;;;;;;;;;5033209;28;20767;-75
2022/04/15 02:06:18;;;;;;;5.47;3.37;;;;;;;;;;5033399;28;20885;-74
2022/04/15 02:08:44;;;;;;;4.53;2.93;;;;;;;;;;5033514;28;20402;-76
2022/04/15 02:11:10;;;;;;;3.80;3.40;;;;;;;;;;5033334;28;20431;-76
2022/04/15 02:13:36;;;;;;;3.30;3.00;;;;;;;;;;5033331;28;20418;-68
2022/04/15 02:16:02;;;;;;;5.30;3.43;;;;;;;;;;5033295;28;20794;-76
2022/04/15 02:18:28;;;;;;;6.70;3.70;;;;;;;;;;5033462;28;20413;-76
2022/04/15 02:20:54;;;;;;;3.83;3.50;;;;;;;;;;5033097;28;20443;-76
2022/04/15 02:23:20;;;;;;;3.83;2.90;;;;;;;;;;5033264;28;20414;-75
2022/04/15 02:25:46;;;;;;;5.00;3.37;;;;;;;;;;5033166;28;20476;-71
2022/04/15 02:28:12;;;;;;;4.43;2.87;;;;;;;;;;5033317;28;20472;-69
2022/04/15 02:30:38;;;;;;;5.77;3.33;;;;;;;;;;5032807;28;20956;-76
2022/04/15 02:33:04;;;;;;;4.90;3.10;;;;;;;;;;5032987;28;20410;-76
2022/04/15 02:35:30;;;;;;;3.43;3.13;;;;;;;;;;5031816;28;20466;-77
2022/04/15 02:37:56;;;;;;;4.90;4.00;;;;;;;;;;5033110;28;20762;-77
2022/04/15 02:40:22;;;;;;;4.43;3.30;;;;;;;;;;5031810;28;20456;-75
2022/04/15 02:42:48;;;;;;;4.57;3.27;;;;;;;;;;5032970;28;20422;-74
2022/04/15 02:45:14;;;;;;;3.87;3.00;;;;;;;;;;5032932;28;20443;-75
2022/04/15 02:47:41;;;;;;;7.30;3.30;;;;;;;;;;5032991;28;20805;-71
2022/04/15 02:50:07;;;;;;;4.33;3.17;;;;;;;;;;5031577;28;20565;-76
2022/04/15 02:52:33;;;;;;;5.17;3.17;;;;;;;;;;5033113;28;20402;-76
2022/04/15 02:54:59;;;;;;;4.30;3.17;;;;;;;;;;5032904;28;20406;-75
2022/04/15 02:57:26;;;;;;;7.40;2.90;;;;;;;;;;5032914;28;20402;-76
2022/04/15 02:59:52;;;;;;;4.37;3.13;;;;;;;;;;5032932;28;20412;-75
2022/04/15 03:02:18;;;;;;;4.23;3.23;;;;;;;;;;5033006;28;20480;-75
2022/04/15 03:04:44;;;;;;;3.20;2.90;;;;;;;;;;5031983;28;20474;-76
2022/04/15 03:07:10;;;;;;;3.70;3.10;;;;;;;;;;5032786;28;20417;-75
2022/04/15 03:09:35;;;;;;;4.93;3.03;;;;;;;;;;5032814;28;20403;-74
2022/04/15 03:12:02;;;;;;;4.90;3.00;;;;;;;;;;5032822;28;20457;-76
2022/04/15 03:14:28;;;;;;;5.30;2.90;;;;;;;;;;5032702;28;20410;-76
2022/04/15 03:16:54;;;;;;;6.83;3.70;;;;;;;;;;5032666;28;20482;-74
2022/04/15 03:19:20;;;;;;;4.00;3.23;;;;;;;;;;5032728;28;20893;-75
2022/04/15 03:21:46;;;;;;;3.20;2.90;;;;;;;;;;5032708;28;20422;-71
2022/04/15 03:24:12;;;;;;;3.27;2.97;;;;;;;;;;5032583;28;20395;-75
2022/04/15 03:26:38;;;;;;;5.20;3.20;;;;;;;;;;5032699;28;20444;-74
2022/04/15 03:29:04;;;;;;;4.03;3.40;;;;;;;;;;5032854;28;20395;-76
2022/04/15 03:31:30;;;;;;;5.30;3.37;;;;;;;;;;5032653;28;20889;-71
2022/04/15 03:33:56;;;;;;;4.30;3.33;;;;;;;;;;5032566;28;20419;-74
2022/04/15 03:36:22;;;;;;;3.07;2.77;;;;;;;;;;5032511;28;20466;-75
2022/04/15 03:38:48;;;;;;;5.50;3.87;;;;;;;;;;5032585;28;20501;-67
2022/04/15 03:41:14;;;;;;;7.17;3.70;;;;;;;;;;5032536;28;20462;-75
2022/04/15 03:43:40;;;;;;;5.10;3.57;;;;;;;;;;5033383;28;20406;-76
2022/04/15 03:46:07;;;;;;;3.70;3.40;;;;;;;;;;5034757;28;20429;-74
2022/04/15 03:48:33;;;;;;;4.70;3.47;;;;;;;;;;5034876;28;20442;-75
2022/04/15 03:50:59;;;;;;;4.93;2.97;;;;;;;;;;5035821;28;20881;-65
2022/04/15 03:53:25;;;;;;;4.10;3.70;;;;;;;;;;5035920;28;20499;-76
2022/04/15 03:55:51;;;;;;;4.43;3.40;;;;;;;;;;5035847;28;20454;-66
2022/04/15 03:58:17;;;;;;;7.03;3.50;;;;;;;;;;5035783;28;20517;-74
2022/04/15 04:00:44;;;;;;;4.03;3.23;;;;;;;;;;5035799;28;20452;-75
2022/04/15 04:03:10;;;;;;;3.67;3.37;;;;;;;;;;5035525;28;20410;-76
2022/04/15 04:05:36;;;;;;;4.70;3.47;;;;;;;;;;5035570;28;20462;-73
2022/04/15 04:08:02;;;;;;;4.90;3.60;;;;;;;;;;5035689;28;20604;-77
2022/04/15 04:10:28;;;;;;;5.60;3.57;;;;;;;;;;5035539;28;20429;-76
2022/04/15 04:12:54;;;;;;;3.87;3.47;;;;;;;;;;5035512;28;20902;-76
2022/04/15 04:15:21;;;;;;;3.50;3.20;;;;;;;;;;5035386;28;20468;-76
2022/04/15 04:17:48;;;;;;;5.67;4.20;;;;;;;;;;5035482;28;20410;-72
2022/04/15 04:20:16;;;;;;;5.33;3.77;;;;;;;;;;5034093;28;20496;-76
2022/04/15 04:22:42;;;;;;;3.77;3.37;;;;;;;;;;5035223;28;20472;-71
2022/04/15 04:25:08;;;;;;;3.90;3.43;;;;;;;;;;5035284;28;20438;-76
2022/04/15 04:27:38;;;;;;;4.10;3.23;;;;;;;;;;5035369;28;20413;-76
2022/04/15 04:30:05;;;;;;;5.10;3.40;;;;;;;;;;5035269;28;20402;-76
2022/04/15 04:32:31;;;;;;;3.23;3.00;;;;;;;;;;5033884;28;20975;-75
2022/04/15 04:34:57;;;;;;;4.03;3.63;;;;;;;;;;5035020;28;20410;-75
2022/04/15 04:37:23;;;;;;;4.10;3.70;;;;;;;;;;5035165;28;20453;-75
2022/04/15 04:39:49;;;;;;;6.23;3.90;;;;;;;;;;5035069;28;20768;-76
2022/04/15 04:42:16;;;;;;;4.60;3.87;;;;;;;;;;5035021;28;20423;-75
2022/04/15 04:44:42;;;;;;;3.53;3.23;;;;;;;;;;5034835;28;20402;-77
2022/04/15 04:47:09;;;;;;;4.93;3.30;;;;;;;;;;5033647;28;20406;-76
2022/04/15 04:49:35;;;;;;;5.63;3.60;;;;;;;;;;5034839;28;20816;-74
2022/04/15 04:52:02;;;;;;;4.87;3.67;;;;;;;;;;5034849;28;20498;-76
2022/04/15 04:54:28;;;;;;;3.53;3.03;;;;;;;;;;5034324;28;20399;-76
2022/04/15 04:56:54;;;;;;;4.57;3.30;;;;;;;;;;5034782;28;20520;-73
2022/04/15 04:59:22;;;;;;;3.73;3.27;;;;;;;;;;5034689;28;20464;-75
2022/04/15 05:01:48;;;;;;;7.20;3.67;;;;;;;;;;5033307;28;20403;-75
2022/04/15 05:04:14;;;;;;;5.60;3.67;;;;;;;;;;5034140;28;20458;-75
2022/04/15 05:06:40;;;;;;;3.83;2.73;;;;;;;;;;5034540;28;20402;-71
2022/04/15 05:09:06;;;;;;;4.83;3.23;;;;;;;;;;5034553;28;20422;-70
2022/04/15 05:11:32;;;;;;;4.03;3.40;;;;;;;;;;5034441;28;20418;-73
2022/04/15 05:13:58;;;;;;;3.47;3.03;;;;;;;;;;5034242;28;20395;-74
2022/04/15 05:16:24;;;;;;;4.20;3.67;;;;;;;;;;5034217;28;20517;-75
2022/04/15 05:18:50;;;;;;;4.47;4.07;;;;;;;;;;5034357;28;20407;-75
2022/04/15 05:21:16;;;;;;;4.87;3.37;;;;;;;;;;5034265;28;20453;-72
2022/04/15 05:23:42;;;;;;;6.20;3.10;;;;;;;;;;5034043;28;20414;-74
2022/04/15 05:26:08;;;;;;;5.70;3.87;;;;;;;;;;5034239;28;20410;-77
2022/04/15 05:28:36;;;;;;;6.50;4.07;;;;;;;;;;5034124;28;20423;-76
2022/04/15 05:31:02;;;;;;;6.23;3.67;;;;;;;;;;5034010;28;20438;-70
2022/04/15 05:33:28;;;;;;;4.10;3.37;;;;;;;;;;5033934;28;20417;-74
2022/04/15 05:35:54;;;;;;;3.83;3.37;;;;;;;;;;5034005;28;20473;-65
2022/04/15 05:38:20;;;;;;;4.13;3.73;;;;;;;;;;5034025;28;20940;-75
2022/04/15 05:40:46;;;;;;;8.03;3.77;;;;;;;;;;5033839;28;20407;-76
2022/04/15 05:43:12;;;;;;;7.30;4.40;;;;;;;;;;5033672;28;20403;-74
2022/04/15 05:45:38;;;;;;;4.87;3.70;;;;;;;;;;5033802;28;20407;-75
2022/04/15 05:48:04;;;;;;;5.37;4.07;;;;;;;;;;5033649;28;20421;-75
2022/04/15 05:50:30;;;;;;;4.63;4.17;;;;;;;;;;5033649;28;20511;-75
2022/04/15 05:52:57;;;;;;;5.90;4.40;;;;;;;;;;5033611;28;20410;-66
2022/04/15 05:55:23;;;;;;;8.63;4.23;;;;;;;;;;5033725;28;20537;-75
2022/04/15 05:57:49;;;;;;;8.87;4.07;;;;;;;;;;5033636;28;20422;-75
2022/04/15 06:00:15;;;;;;;6.03;4.17;;;;;;;;;;5033548;28;20406;-70
2022/04/15 06:02:41;;;;;;;4.77;4.10;;;;;;;;;;5033472;28;20909;-73
2022/04/15 06:05:08;;;;;;;4.70;4.03;;;;;;;;;;5033326;28;20458;-76
2022/04/15 06:07:34;;;;;;;5.23;4.43;;;;;;;;;;5032781;28;20421;-75
2022/04/15 06:10:00;;;;;;;6.60;4.43;;;;;;;;;;5033385;28;20418;-73
2022/04/15 06:12:54;;;;;;;4.60;4.00;;;;;;;;;;5033434;28;20762;-74
2022/04/15 06:15:20;;;;;;;5.23;3.97;;;;;;;;;;5033218;28;20426;-64
2022/04/15 06:17:46;;;;;;;5.03;3.97;;;;;;;;;;5033275;28;20507;-74
2022/04/15 06:20:12;;;;;;;6.20;5.40;;;;;;;;;;5033291;28;20897;-70
2022/04/15 06:22:41;;;;;;;6.30;4.90;;;;;;;;;;5033104;28;20475;-76
2022/04/15 06:25:07;;;;;;;7.17;5.00;;;;;;;;;;5033271;28;20948;-65
2022/04/15 06:27:34;;;;;;;6.47;5.20;;;;;;;;;;5033225;28;20446;-74
2022/04/15 06:30:00;;;;;;;5.73;5.07;;;;;;;;;;5033091;28;20762;-73
2022/04/15 06:32:26;;;;;;;9.50;6.37;;;;;;;;;;5033151;28;20418;-75
2022/04/15 06:34:52;;;;;;;9.03;6.10;;;;;;;;;;5033154;28;20402;-73
2022/04/15 06:37:18;;;;;;;8.53;6.00;;;;;;;;;;5033105;28;21005;-69
2022/04/15 06:39:50;;;;;;;7.70;6.57;;;;;;;;;;5033067;28;20409;-66
2022/04/15 06:42:16;;;;;;;9.03;7.23;;;;;;;;;;5033097;28;20417;-74
2022/04/15 06:44:42;;;;;;;9.73;6.60;;;;;;;;;;5032967;28;20411;-73
2022/04/15 06:47:08;;;;;;;10.30;6.90;;;;;;;;;;5032959;28;20472;-73
2022/04/15 06:49:34;;;;;;;12.33;7.40;;;;;;;;;;5032882;28;20989;-73
2022/04/15 06:52:00;;;;;;;13.50;8.00;;;;;;;;;;5032987;28;20406;-68
2022/04/15 06:54:26;;;;;;;14.97;9.00;;;;;;;;;;5033083;28;20411;-72
2022/04/15 06:56:52;;;;;;;14.07;8.70;;;;;;;;;;5032840;28;20556;-72
2022/04/15 06:59:17;;;;;;;12.03;8.40;;;;;;;;;;5032935;28;20412;-73
2022/04/15 07:01:44;;;;;;;13.20;9.03;;;;;;;;;;5032958;28;20401;-73
2022/04/15 07:04:11;;;;;;;15.83;8.37;;;;;;;;;;5032551;28;20874;-73
2022/04/15 07:06:37;;;;;;;11.53;9.63;;;;;;;;;;5032950;28;20425;-74
2022/04/15 07:09:04;;;;;;;13.53;9.30;;;;;;;;;;5031619;28;20402;-74
2022/04/15 07:11:30;;;;;;;14.33;8.50;;;;;;;;;;5032999;28;20398;-64
2022/04/15 07:13:56;;;;;;;10.90;8.10;;;;;;;;;;5031557;28;20434;-73
2022/04/15 07:16:22;;;;;;;17.83;11.30;;;;;;;;;;5032834;28;20551;-74
2022/04/15 07:18:48;;;;;;;15.80;11.30;;;;;;;;;;5035834;28;20418;-75
2022/04/15 07:21:14;;;;;;;14.20;10.33;;;;;;;;;;5036586;28;20437;-74
2022/04/15 07:23:40;;;;;;;14.53;10.37;;;;;;;;;;5036362;28;20414;-75
2022/04/15 07:26:06;;;;;;;17.67;10.87;;;;;;;;;;5035294;28;20426;-72
2022/04/15 07:28:32;;;;;;;12.63;9.70;;;;;;;;;;5036380;28;20975;-73
2022/04/15 07:30:58;;;;;;;14.23;10.10;;;;;;;;;;5036419;28;20410;-74
2022/04/15 07:33:24;;;;;;;17.33;11.80;;;;;;;;;;5036189;28;20840;-71
2022/04/15 07:35:50;;;;;;;13.60;10.60;;;;;;;;;;5036268;28;20469;-74
2022/04/15 07:38:16;;;;;;;19.40;12.20;;;;;;;;;;5036235;28;20901;-71
2022/04/15 07:40:41;;;;;;;21.53;12.57;;;;;;;;;;5036267;28;20442;-74
2022/04/15 07:43:09;;;;;;;14.50;11.93;;;;;;;;;;5036083;28;20449;-74
2022/04/15 07:45:35;;;;;;;17.40;12.50;;;;;;;;;;5036084;28;20407;-72
2022/04/15 07:48:01;;;;;;;20.60;12.63;;;;;;;;;;5036117;28;20413;-72
2022/04/15 07:50:27;;;;;;;18.03;13.00;;;;;;;;;;5035946;28;20431;-73
2022/04/15 07:52:57;;;;;;;19.20;14.57;;;;;;;;;;5035853;28;20410;-74
2022/04/15 07:55:23;;;;;;;18.00;13.00;;;;;;;;;;5035803;28;20403;-74
2022/04/15 07:57:49;;;;;;;17.80;13.30;;;;;;;;;;5035771;28;20449;-70
2022/04/15 08:00:15;;;;;;;17.57;12.23;;;;;;;;;;5035904;28;20405;-73
2022/04/15 08:02:41;;;;;;;19.70;13.03;;;;;;;;;;5035521;28;20422;-74
2022/04/15 08:05:08;;;;;;;18.23;12.90;;;;;;;;;;5035529;28;20470;-72
2022/04/15 08:07:34;;;;;;;21.00;13.00;;;;;;;;;;5035702;28;20454;-73
2022/04/15 08:10:00;;;;;;;19.60;13.30;;;;;;;;;;5035613;28;20417;-73
2022/04/15 08:12:26;;;;;;;19.10;13.67;;;;;;;;;;5035491;28;20497;-64
2022/04/15 08:14:52;;;;;;;20.63;13.30;;;;;;;;;;5035459;28;20417;-72
2022/04/15 08:17:19;;;;;;;15.73;12.90;;;;;;;;;;5035388;28;20466;-73
2022/04/15 08:19:45;;;;;;;17.80;12.93;;;;;;;;;;5035396;28;20510;-74
2022/04/15 08:22:11;;;;;;;15.73;12.83;;;;;;;;;;5035366;28;20469;-75
2022/04/15 08:24:42;;;;;;;18.57;14.80;;;;;;;;;;5035258;28;20395;-74
2022/04/15 08:27:08;;;;;;;18.20;13.17;;;;;;;;;;5035251;28;20415;-74
2022/04/15 08:29:38;;;;;;;19.80;14.03;;;;;;;;;;5034365;28;20399;-73
2022/04/15 08:32:04;;;;;;;18.13;14.73;;;;;;;;;;5035258;28;20403;-68
2022/04/15 08:34:31;;;;;;;18.70;14.03;;;;;;;;;;5035257;28;20792;-75
2022/04/15 08:36:57;;;;;;;19.80;14.50;;;;;;;;;;5033761;28;20532;-74
2022/04/15 08:39:23;;;;;;;21.97;14.70;;;;;;;;;;5035031;28;20410;-73
2022/04/15 08:41:49;;;;;;;18.37;14.13;;;;;;;;;;5035068;28;20414;-71
2022/04/15 08:44:15;;;;;;;18.00;14.10;;;;;;;;;;5034928;28;20410;-74
2022/04/15 08:46:42;;;;;;;20.43;14.83;;;;;;;;;;5034884;28;20740;-72
2022/04/15 08:49:08;;;;;;;19.80;15.67;;;;;;;;;;5034943;28;20882;-73
2022/04/15 08:51:35;;;;;;;17.80;14.77;;;;;;;;;;5034815;28;20433;-69
2022/04/15 08:54:02;;;;;;;18.40;15.17;;;;;;;;;;5034781;28;20445;-74
2022/04/15 08:56:28;;;;;;;19.07;14.57;;;;;;;;;;5034674;28;20473;-72
2022/04/15 08:58:54;;;;;;;21.00;14.93;;;;;;;;;;5034663;28;20425;-74
2022/04/15 09:01:20;;;;;;;19.57;13.97;;;;;;;;;;5034696;28;20434;-72
2022/04/15 09:03:46;;;;;;;17.53;13.03;;;;;;;;;;5034598;28;20406;-72
2022/04/15 09:06:18;;;;;;;20.33;15.33;;;;;;;;;;5034345;28;21051;-74
2022/04/15 09:09:00;;;;;;;19.20;15.73;;;;;;;;;;5034684;28;20737;-75
2022/04/15 09:11:33;;;;;;;20.07;15.40;;;;;;;;;;5034481;28;20418;-74
2022/04/15 09:14:02;;;;;;;21.57;15.87;;;;;;;;;;5034347;28;20437;-74
2022/04/15 09:16:29;;;;;;;22.50;16.97;;;;;;;;;;5034309;28;20466;-75
2022/04/15 09:18:55;;;;;;;22.83;17.40;;;;;;;;;;5034407;28;20418;-75
2022/04/15 09:21:22;;;;;;;22.13;17.77;;;;;;;;;;5034119;28;20496;-64
2022/04/15 09:23:52;;;;;;;21.97;17.33;;;;;;;;;;5034267;28;20426;-67
2022/04/15 09:26:19;;;;;;;19.83;16.30;;;;;;;;;;5034315;28;20415;-73
2022/04/15 09:28:45;;;;;;;22.83;18.13;;;;;;;;;;5034235;28;20425;-73
2022/04/15 09:31:15;;;;;;;22.13;17.00;;;;;;;;;;5034160;28;20902;-74
2022/04/15 09:33:57;;;;;;;22.30;17.70;;;;;;;;;;5034058;28;20885;-70
2022/04/15 09:36:27;;;;;;;22.40;17.03;;;;;;;;;;5033929;28;20568;-64
2022/04/15 09:38:56;;;;;;;20.57;16.83;;;;;;;;;;5033958;28;20749;-73
2022/04/15 09:41:23;;;;;;;18.67;15.07;;;;;;;;;;5033803;28;20406;-72
2022/04/15 09:43:52;;;;;;;21.90;17.30;;;;;;;;;;5033687;28;20410;-73
2022/04/15 09:46:19;;;;;;;23.30;16.90;;;;;;;;;;5033847;28;20976;-65
2022/04/15 09:49:03;;;;;;;20.10;16.17;;;;;;;;;;5033717;28;20390;-73
2022/04/15 09:51:37;;;;;;;20.67;16.40;;;;;;;;;;5033727;28;20441;-74
2022/04/15 09:54:04;;;;;;;19.63;16.60;;;;;;;;;;5033744;28;20387;-74
2022/04/15 09:56:34;;;;;;;21.67;16.13;;;;;;;;;;5033628;28;20466;-74
2022/04/15 09:59:03;;;;;;;20.77;16.33;;;;;;;;;;5033589;28;20522;-72
2022/04/15 10:01:30;;;;;;;17.30;14.13;;;;;;;;;;5032379;28;20415;-73
2022/04/15 10:03:57;;;;;;;19.10;15.70;;;;;;;;;;5033175;28;20745;-72
2022/04/15 10:06:23;;;;;;;19.40;14.80;;;;;;;;;;5033502;28;20742;-69
2022/04/15 10:08:49;;;;;;;20.50;16.10;;;;;;;;;;5033516;28;20415;-72
2022/04/15 10:11:15;;;;;;;18.87;14.27;;;;;;;;;;5033341;28;20410;-74
2022/04/15 10:13:45;;;;;;;17.80;15.27;;;;;;;;;;5033425;28;20449;-74
2022/04/15 10:16:11;;;;;;;16.47;14.27;;;;;;;;;;5033284;28;20516;-73
2022/04/15 10:18:37;;;;;;;16.27;14.07;;;;;;;;;;5033413;28;20481;-72
2022/04/15 10:21:04;;;;;;;17.40;13.90;;;;;;;;;;5033222;28;20497;-74
2022/04/15 10:23:30;;;;;;;17.60;13.00;;;;;;;;;;5033123;28;20390;-68
2022/04/15 10:25:59;;;;;;;14.33;12.37;;;;;;;;;;5033336;28;20453;-70
2022/04/15 10:28:38;;;;;;;16.17;13.30;;;;;;;;;;5033248;28;20407;-73
2022/04/15 10:31:04;;;;;;;15.37;12.47;;;;;;;;;;5033181;28;20398;-74
2022/04/15 10:33:31;;;;;;;17.77;14.43;;;;;;;;;;5033080;28;20406;-74
2022/04/15 10:36:10;;;;;;;19.30;14.60;;;;;;;;;;5033177;28;20519;-74
2022/04/15 10:38:36;;;;;;;22.90;15.50;;;;;;;;;;5033275;28;20398;-74
2022/04/15 10:41:14;;;;;;;17.37;13.87;;;;;;;;;;5033123;28;20491;-74
2022/04/15 10:43:55;;;;;;;20.40;13.40;;;;;;;;;;5032957;28;20402;-72
2022/04/15 10:46:29;;;;;;;17.30;13.40;;;;;;;;;;5033152;28;20452;-72
2022/04/15 10:48:57;;;;;;;14.87;12.80;;;;;;;;;;5032966;28;20473;-72
2022/04/15 10:51:24;;;;;;;13.50;11.60;;;;;;;;;;5032982;28;20438;-72
2022/04/15 10:53:51;;;;;;;13.17;11.40;;;;;;;;;;5036286;28;20507;-72
2022/04/15 10:56:18;;;;;;;14.63;10.17;;;;;;;;;;5036973;28;20474;-73
2022/04/15 11:01:34;;;;;;;12.83;11.07;;;;;;;;;;5026036;28;20403;-74
2022/04/15 11:04:08;;;;;;;15.70;11.10;;;;;;;;;;5036525;28;20426;-73
2022/04/15 11:06:34;;;;;;;12.80;10.60;;;;;;;;;;5036885;28;20778;-73
2022/04/15 11:09:14;;;;;;;14.80;11.33;;;;;;;;;;5036793;28;20402;-72
2022/04/15 11:11:40;;;;;;;12.53;11.27;;;;;;;;;;5036883;28;20406;-68
2022/04/15 11:14:08;;;;;;;14.10;11.10;;;;;;;;;;5036663;28;20408;-72
2022/04/15 11:16:40;;;;;;;12.67;10.70;;;;;;;;;;5036501;28;20465;-74
2022/04/15 11:19:08;;;;;;;14.17;10.97;;;;;;;;;;5035405;28;20406;-73
2022/04/15 11:21:36;;;;;;;11.97;10.10;;;;;;;;;;5036495;28;20560;-73
2022/04/15 11:24:07;;;;;;;14.57;10.17;;;;;;;;;;5036286;28;20513;-75
2022/04/15 11:26:34;;;;;;;11.90;10.40;;;;;;;;;;5036593;28;20932;-74
2022/04/15 11:29:01;;;;;;;12.37;10.43;;;;;;;;;;5036426;28;21117;-73
2022/04/15 11:31:33;;;;;;;13.03;10.40;;;;;;;;;;5036362;28;20406;-73
2022/04/15 11:34:03;;;;;;;12.70;10.40;;;;;;;;;;5036333;28;20885;-66
2022/04/15 11:36:31;;;;;;;11.30;10.10;;;;;;;;;;5036161;28;20474;-73
2022/04/15 11:39:00;;;;;;;15.80;11.90;;;;;;;;;;5036248;28;20433;-73
2022/04/15 11:41:26;;;;;;;14.20;12.40;;;;;;;;;;5036162;28;20399;-70
2022/04/15 11:44:03;;;;;;;15.20;11.90;;;;;;;;;;5035898;28;20403;-73
2022/04/15 11:46:41;;;;;;;12.60;11.30;;;;;;;;;;5036170;28;20754;-74
2022/04/15 11:49:25;;;;;;;14.80;12.80;;;;;;;;;;5036064;28;20493;-73
2022/04/15 11:51:52;;;;;;;14.90;12.13;;;;;;;;;;5036055;28;20445;-75
2022/04/15 11:54:30;;;;;;;14.87;11.07;;;;;;;;;;5034772;28;20414;-72
2022/04/15 11:56:57;;;;;;;12.23;10.97;;;;;;;;;;5035968;28;20474;-74
2022/04/15 11:59:24;;;;;;;11.27;9.00;;;;;;;;;;5035902;28;20426;-72
2022/04/15 12:01:50;;;;;;;11.97;9.87;;;;;;;;;;5035732;28;20407;-74
2022/04/15 12:04:19;;;;;;;12.20;9.37;;;;;;;;;;5034235;28;20460;-74
2022/04/15 12:06:45;;;;;;;10.60;7.87;;;;;;;;;;5034568;28;20481;-74
2022/04/15 12:09:12;;;;;;;8.40;7.00;;;;;;;;;;5035650;28;20414;-74
2022/04/15 12:11:39;;;;;;;8.43;6.97;;;;;;;;;;5035776;28;20419;-74
2022/04/15 12:14:07;;;;;;;9.70;8.50;;;;;;;;;;5035543;28;20409;-73
2022/04/15 12:16:33;;;;;;;10.77;8.93;;;;;;;;;;5035532;28;20556;-73
2022/04/15 12:19:00;;;;;;;12.00;10.20;;;;;;;;;;5035497;28;20460;-70
2022/04/15 12:21:27;;;;;;;13.60;10.90;;;;;;;;;;5035339;28;20434;-73
2022/04/15 12:24:05;;;;;;;13.40;11.60;;;;;;;;;;5035397;28;20410;-73
2022/04/15 12:26:48;;;;;;;14.23;11.23;;;;;;;;;;5035236;28;20410;-73
2022/04/15 12:32:19;;;;;;;14.20;10.70;;;;;;;;;;5035197;28;20815;-64
2022/04/15 12:34:46;;;;;;;17.23;10.53;;;;;;;;;;5035271;28;20957;-74
2022/04/15 12:37:34;;;;;;;12.53;10.53;;;;;;;;;;5035075;28;20512;-75
2022/04/15 12:40:01;;;;;;;12.50;8.97;;;;;;;;;;5035160;28;20418;-74
2022/04/15 12:42:28;;;;;;;8.90;8.10;;;;;;;;;;5034976;28;20406;-68
2022/04/15 12:44:54;;;;;;;10.83;8.63;;;;;;;;;;5033792;28;20418;-74
2022/04/15 12:47:20;;;;;;;8.90;7.47;;;;;;;;;;5035016;28;20427;-74
2022/04/15 12:49:46;;;;;;;8.70;7.80;;;;;;;;;;5034796;28;20869;-74
2022/04/15 12:52:19;;;;;;;8.27;7.40;;;;;;;;;;5034890;28;20473;-75
2022/04/15 12:55:03;;;;;;;9.30;8.03;;;;;;;;;;5034784;28;20398;-71
2022/04/15 12:57:33;;;;;;;10.83;7.37;;;;;;;;;;5034692;28;20828;-67
2022/04/15 12:59:59;;;;;;;8.40;6.50;;;;;;;;;;5034763;28;20409;-73
2022/04/15 13:02:25;;;;;;;8.60;7.30;;;;;;;;;;5034572;28;20411;-65
2022/04/15 13:04:52;;;;;;;8.50;7.60;;;;;;;;;;5034307;28;20446;-75
2022/04/15 13:07:19;;;;;;;10.40;9.07;;;;;;;;;;5034574;28;20418;-74
2022/04/15 13:09:45;;;;;;;7.50;6.70;;;;;;;;;;5034597;28;20390;-73
2022/04/15 13:12:11;;;;;;;8.93;6.90;;;;;;;;;;5034342;28;20472;-69
2022/04/15 13:14:38;;;;;;;8.43;7.17;;;;;;;;;;5033128;28;20427;-74
2022/04/15 13:17:04;;;;;;;9.23;6.67;;;;;;;;;;5034057;28;20468;-74
2022/04/15 13:19:30;;;;;;;7.50;6.70;;;;;;;;;;5034340;28;20409;-74
2022/04/15 13:21:56;;;;;;;7.83;7.10;;;;;;;;;;5034314;28;20415;-74
2022/04/15 13:24:22;;;;;;;7.07;6.37;;;;;;;;;;5034151;28;20873;-74
2022/04/15 13:26:48;;;;;;;10.50;7.47;;;;;;;;;;5034158;28;20429;-73
2022/04/15 13:29:14;;;;;;;9.13;7.33;;;;;;;;;;5034167;28;20413;-74
2022/04/15 13:31:40;;;;;;;8.47;7.10;;;;;;;;;;5033998;28;20457;-74
2022/04/15 13:34:06;;;;;;;8.20;7.40;;;;;;;;;;5034046;28;20427;-74
2022/04/15 13:36:32;;;;;;;10.60;7.50;;;;;;;;;;5033972;28;20571;-73
2022/04/15 13:38:58;;;;;;;8.57;7.67;;;;;;;;;;5034037;28;20403;-73
2022/04/15 13:41:26;;;;;;;9.17;8.00;;;;;;;;;;5033940;28;20469;-74
2022/04/15 13:43:53;;;;;;;8.77;7.87;;;;;;;;;;5033777;28;20482;-73
2022/04/15 13:46:19;;;;;;;8.27;7.47;;;;;;;;;;5033893;28;20410;-73
2022/04/15 13:48:46;;;;;;;9.23;8.30;;;;;;;;;;5033746;28;20407;-75
2022/04/15 13:51:12;;;;;;;8.17;7.07;;;;;;;;;;5033734;28;20449;-74
2022/04/15 13:56:34;;;;;;;9.13;7.10;;;;;;;;;;5033756;28;20513;-75
2022/04/15 13:59:10;;;;;;;7.60;6.90;;;;;;;;;;5033716;28;20423;-75
2022/04/15 14:01:39;;;;;;;14.53;7.37;;;;;;;;;;5033587;28;20842;-74
2022/04/15 14:04:07;;;;;;;7.20;6.50;;;;;;;;;;5033182;28;20406;-76
2022/04/15 14:06:33;;;;;;;8.60;7.73;;;;;;;;;;5033630;28;20423;-74
2022/04/15 14:08:59;;;;;;;9.30;8.37;;;;;;;;;;5033593;28;20413;-72
2022/04/15 14:11:26;;;;;;;10.13;8.90;;;;;;;;;;5033538;28;20426;-74
2022/04/15 14:13:52;;;;;;;10.20;8.10;;;;;;;;;;5033358;28;20898;-76
2022/04/15 14:16:18;;;;;;;7.60;6.90;;;;;;;;;;5033339;28;20473;-72
2022/04/15 14:18:44;;;;;;;9.47;7.07;;;;;;;;;;5033445;28;20463;-75
2022/04/15 14:21:11;;;;;;;8.70;7.70;;;;;;;;;;5033282;28;20505;-76
2022/04/15 14:23:37;;;;;;;7.70;6.83;;;;;;;;;;5033223;28;20410;-75
2022/04/15 14:26:04;;;;;;;6.80;6.20;;;;;;;;;;5033262;28;20418;-68
2022/04/15 14:28:30;;;;;;;7.87;7.07;;;;;;;;;;5032531;28;20885;-74
2022/04/15 14:30:58;;;;;;;10.93;7.83;;;;;;;;;;5033205;28;20525;-74
2022/04/15 14:33:24;;;;;;;8.40;7.40;;;;;;;;;;5033000;28;20898;-73
2022/04/15 14:35:50;;;;;;;10.63;7.60;;;;;;;;;;5033131;28;20470;-73
2022/04/15 14:38:16;;;;;;;7.70;7.00;;;;;;;;;;5033266;28;20398;-74
2022/04/15 14:40:42;;;;;;;7.33;6.73;;;;;;;;;;5033047;28;20410;-73
2022/04/15 14:43:08;;;;;;;8.80;6.77;;;;;;;;;;5031697;28;20494;-74